Girouxville, Canada
Current Conditions -  °F | °C
As of 2:00 PM on Tuesday 27 Jan 2015 (Local Time) from CYPE Reporting Station
Light Snow Light Snow  
Wind Chill: -2°   Ceiling: 2000
Heat Index: 14°   Visibility: 1.5mi
Dew Point: 10°   Wind: 16mph
Humidity: 86%   Direction: 30°NNE
Pressure: 29.85"   Gusts: NA
Location:  55.75°N, 117.33°W
Report Text: CYPE 272100Z 03014KT 1 1/2SM -SN DRSN OVC020 M10/M12 A2985 RMK SC8 VIS VRB 1-2 PRESFR SLP148
Loading
Personal Weather Stations






























Interactive Weather Map New forecast layout! Learn more

10-Day Weather Forecast

Advertisements
Track Severe Weather on mobile